createdAt,value
2022-10-05T00:01:39.378Z,1.80
2022-10-05T00:03:41.384Z,0.98
2022-10-05T00:05:44.990Z,1.30
2022-10-05T00:07:46.436Z,1.20
2022-10-05T00:09:58.049Z,1.23
2022-10-05T00:11:59.543Z,1.40
2022-10-05T00:14:01.459Z,1.65
2022-10-05T00:16:09.611Z,1.40
2022-10-05T00:18:13.326Z,1.00
2022-10-05T00:20:14.824Z,2.10
2022-10-05T00:22:17.481Z,1.13
2022-10-05T00:24:20.423Z,1.65
2022-10-05T00:26:23.670Z,1.17
2022-10-05T00:28:27.066Z,0.70
2022-10-05T00:30:34.347Z,0.70
2022-10-05T00:32:59.526Z,1.15
2022-10-05T00:35:25.783Z,2.63
2022-10-05T00:37:52.430Z,1.00
2022-10-05T00:40:04.703Z,1.60
2022-10-05T00:42:29.362Z,2.05
2022-10-05T00:44:51.253Z,2.15
2022-10-05T00:47:25.022Z,2.10
2022-10-05T00:49:59.757Z,1.02
2022-10-05T00:52:29.246Z,0.85
2022-10-05T00:54:42.569Z,1.20
2022-10-05T00:57:02.412Z,0.77
2022-10-05T00:59:30.861Z,0.80
2022-10-05T01:01:37.158Z,1.00
2022-10-05T01:03:41.416Z,0.80
2022-10-05T01:05:42.891Z,0.88
2022-10-05T01:08:03.448Z,1.00
2022-10-05T01:10:10.510Z,0.77
2022-10-05T01:12:24.126Z,1.45
2022-10-05T01:14:34.889Z,0.85
2022-10-05T01:16:55.293Z,1.63
2022-10-05T01:18:56.723Z,1.20
2022-10-05T01:21:16.614Z,3.20
2022-10-05T01:23:37.214Z,3.63
2022-10-05T01:26:06.837Z,1.73
2022-10-05T01:28:10.452Z,1.30
2022-10-05T01:30:19.567Z,1.30
2022-10-05T01:32:31.565Z,1.50
2022-10-05T01:34:35.903Z,0.93
2022-10-05T01:36:37.426Z,1.20
2022-10-05T01:38:46.509Z,1.88
2022-10-05T01:40:53.808Z,0.98
2022-10-05T01:43:01.278Z,1.50
2022-10-05T01:45:02.758Z,1.73
2022-10-05T01:47:09.394Z,2.60
2022-10-05T01:49:12.021Z,1.20
2022-10-05T01:51:22.415Z,2.47
2022-10-05T01:53:35.987Z,3.50
2022-10-05T01:55:46.742Z,1.65
2022-10-05T01:58:00.610Z,1.55
2022-10-05T02:00:02.071Z,1.58
2022-10-05T02:02:05.269Z,2.22
2022-10-05T02:04:29.606Z,2.22
2022-10-05T02:06:41.012Z,1.40
2022-10-05T02:08:54.026Z,1.67
2022-10-05T02:11:01.332Z,1.88
2022-10-05T02:13:11.727Z,2.10
2022-10-05T02:15:19.453Z,2.22
2022-10-05T02:17:24.777Z,1.58
2022-10-05T02:19:35.415Z,1.85
2022-10-05T02:21:37.279Z,1.90
2022-10-05T02:23:40.023Z,1.40
2022-10-05T02:25:43.704Z,1.65
2022-10-05T02:27:52.185Z,1.33
2022-10-05T02:29:55.019Z,1.63
2022-10-05T02:32:12.782Z,2.05
2022-10-05T02:34:24.709Z,1.65
2022-10-05T02:36:30.052Z,1.77
2022-10-05T02:38:46.919Z,2.40
2022-10-05T02:40:51.725Z,1.65
2022-10-05T02:43:12.040Z,2.40
2022-10-05T02:45:32.413Z,1.63
2022-10-05T02:47:52.524Z,1.98
2022-10-05T02:49:57.520Z,1.77
2022-10-05T02:52:17.345Z,1.80
2022-10-05T02:54:18.825Z,2.10
2022-10-05T02:56:29.336Z,2.17
2022-10-05T02:58:39.079Z,1.77
2022-10-05T03:00:47.496Z,1.90
2022-10-05T03:02:55.907Z,2.70
2022-10-05T03:04:57.319Z,1.88
2022-10-05T03:07:05.034Z,1.70
2022-10-05T03:09:07.646Z,1.90
2022-10-05T03:11:18.067Z,1.40
2022-10-05T03:13:25.572Z,2.17
2022-10-05T03:15:44.141Z,2.03
2022-10-05T03:18:05.831Z,2.13
2022-10-05T03:20:10.080Z,2.63
2022-10-05T03:22:24.846Z,2.00
2022-10-05T03:24:26.318Z,1.88
2022-10-05T03:26:36.794Z,1.60
2022-10-05T03:28:56.850Z,2.30
2022-10-05T03:31:17.201Z,2.67
2022-10-05T03:33:22.973Z,1.90
2022-10-05T03:35:31.196Z,2.30
2022-10-05T03:37:44.345Z,1.92
2022-10-05T03:39:59.558Z,2.45
2022-10-05T03:42:05.521Z,1.90
2022-10-05T03:44:32.970Z,1.83
2022-10-05T03:47:00.324Z,2.45
2022-10-05T03:49:08.233Z,2.35
2022-10-05T03:51:20.566Z,3.28
2022-10-05T03:53:32.221Z,2.03
2022-10-05T03:55:40.607Z,1.88
2022-10-05T03:57:49.462Z,2.75
2022-10-05T04:00:15.994Z,2.08
2022-10-05T04:02:29.452Z,1.27
2022-10-05T04:04:38.848Z,1.45
2022-10-05T04:06:46.585Z,2.45
2022-10-05T04:09:11.164Z,3.03
2022-10-05T04:11:14.491Z,1.98
2022-10-05T04:13:15.955Z,1.95
2022-10-05T04:15:18.979Z,1.75
2022-10-05T04:17:40.605Z,2.85
2022-10-05T04:19:56.477Z,2.70
2022-10-05T04:22:17.080Z,1.75
2022-10-05T04:24:22.406Z,2.67
2022-10-05T04:26:30.735Z,1.70
2022-10-05T04:28:44.232Z,2.25
2022-10-05T04:30:47.882Z,2.10
2022-10-05T04:32:57.350Z,2.22
2022-10-05T04:35:01.613Z,1.42
2022-10-05T04:37:06.437Z,1.60
2022-10-05T04:39:26.388Z,2.72
2022-10-05T04:41:43.251Z,1.85
2022-10-05T04:43:56.943Z,2.20
2022-10-05T04:46:04.421Z,1.83
2022-10-05T04:48:09.079Z,2.22
2022-10-05T04:50:29.319Z,1.88
2022-10-05T04:52:39.666Z,2.13
2022-10-05T04:54:54.916Z,2.65
2022-10-05T04:56:59.298Z,1.92
2022-10-05T04:59:12.734Z,1.67
2022-10-05T05:01:24.031Z,2.07
2022-10-05T05:03:31.899Z,1.50
2022-10-05T05:06:15.443Z,1.52
2022-10-05T05:08:15.991Z,1.80
2022-10-05T05:10:20.653Z,2.33
2022-10-05T05:12:35.121Z,2.20
2022-10-05T05:16:39.735Z,1.70
2022-10-05T05:18:59.803Z,1.80
2022-10-05T05:21:01.242Z,1.40
2022-10-05T05:23:22.918Z,1.70
2022-10-05T05:25:30.364Z,3.47
2022-10-05T05:27:43.837Z,2.88
2022-10-05T05:30:04.161Z,2.13
2022-10-05T05:32:05.679Z,1.50
2022-10-05T05:34:16.246Z,1.98
2022-10-05T05:36:23.584Z,1.45
2022-10-05T05:38:31.715Z,1.85
2022-10-05T05:40:40.387Z,1.80
2022-10-05T05:42:56.749Z,2.30
2022-10-05T05:45:01.428Z,1.67
2022-10-05T05:47:08.095Z,1.77
2022-10-05T05:49:33.243Z,2.05
2022-10-05T05:53:50.643Z,2.40
2022-10-05T05:55:53.813Z,2.40
2022-10-05T05:58:24.746Z,1.45
2022-10-05T06:00:34.586Z,2.47
2022-10-05T06:02:42.890Z,2.78
2022-10-05T06:04:45.988Z,1.77
2022-10-05T06:06:49.434Z,2.83
2022-10-05T06:08:51.221Z,2.72
2022-10-05T06:10:55.691Z,2.88
2022-10-05T06:13:01.669Z,1.63
2022-10-05T06:15:21.891Z,2.22
2022-10-05T06:17:34.491Z,1.70
2022-10-05T06:19:36.847Z,2.78
2022-10-05T06:21:47.679Z,4.25
2022-10-05T06:23:55.223Z,1.80
2022-10-05T06:25:56.713Z,1.80
2022-10-05T06:28:11.674Z,1.50
2022-10-05T06:30:15.175Z,2.20
2022-10-05T06:32:22.477Z,2.65
2022-10-05T06:34:41.334Z,2.47
2022-10-05T06:36:49.625Z,3.63
2022-10-05T06:38:59.991Z,2.08
2022-10-05T06:41:14.620Z,2.33
2022-10-05T06:43:29.704Z,2.88
2022-10-05T06:45:43.030Z,3.00
2022-10-05T06:47:59.460Z,2.60
2022-10-05T06:50:17.749Z,2.88
2022-10-05T06:52:23.955Z,2.10
2022-10-05T06:54:43.028Z,2.40
2022-10-05T06:57:04.774Z,2.30
2022-10-05T06:59:19.590Z,2.20
2022-10-05T07:01:48.833Z,1.90
2022-10-05T07:04:09.530Z,2.30
2022-10-05T07:06:22.974Z,2.60
2022-10-05T07:08:55.831Z,1.95
2022-10-05T07:11:11.462Z,2.63
2022-10-05T07:13:22.181Z,3.05
2022-10-05T07:15:36.425Z,2.60
2022-10-05T07:17:45.553Z,2.47
2022-10-05T07:19:54.932Z,3.13
2022-10-05T07:22:14.976Z,3.42
2022-10-05T07:24:20.417Z,2.05
2022-10-05T07:26:25.833Z,2.17
2022-10-05T07:28:36.212Z,2.30
2022-10-05T07:30:45.432Z,2.92
2022-10-05T07:33:05.284Z,2.10
2022-10-05T07:35:09.987Z,2.75
2022-10-05T07:37:38.051Z,2.33
2022-10-05T07:40:00.058Z,2.72
2022-10-05T07:42:04.995Z,2.65
2022-10-05T07:44:12.948Z,3.50
2022-10-05T07:46:17.395Z,2.65
2022-10-05T07:48:33.165Z,2.10
2022-10-05T07:50:38.820Z,2.22
2022-10-05T07:52:43.785Z,2.83
2022-10-05T07:54:45.781Z,3.35
2022-10-05T07:56:50.203Z,2.30
2022-10-05T07:58:54.506Z,2.55
2022-10-05T08:03:08.792Z,2.88
2022-10-05T08:05:14.087Z,2.83
2022-10-05T08:07:17.222Z,2.55
2022-10-05T08:09:21.556Z,4.38
2022-10-05T08:11:40.719Z,1.92
2022-10-05T08:14:11.121Z,2.97
2022-10-05T08:16:14.456Z,2.17
2022-10-05T08:18:23.991Z,2.75
2022-10-05T08:20:37.863Z,2.78
2022-10-05T08:22:46.089Z,3.03
2022-10-05T08:24:47.666Z,2.40
2022-10-05T08:26:55.123Z,2.78
2022-10-05T08:29:04.895Z,2.25
2022-10-05T08:31:16.874Z,1.92
2022-10-05T08:33:20.408Z,2.67
2022-10-05T08:35:35.747Z,2.20
2022-10-05T08:37:39.286Z,2.08
2022-10-05T08:39:42.644Z,2.70
2022-10-05T08:41:55.282Z,2.53
2022-10-05T08:44:05.468Z,2.70
2022-10-05T08:46:13.194Z,2.65
2022-10-05T08:48:17.980Z,2.28
2022-10-05T08:50:35.112Z,3.15
2022-10-05T08:52:46.155Z,2.72
2022-10-05T08:54:54.743Z,2.20
2022-10-05T08:57:05.634Z,5.28
2022-10-05T08:59:07.390Z,2.95
2022-10-05T09:01:27.642Z,3.08
2022-10-05T09:03:34.193Z,4.20
2022-10-05T09:05:56.391Z,3.17
2022-10-05T09:08:18.050Z,2.55
2022-10-05T09:10:25.303Z,2.97
2022-10-05T09:12:44.979Z,3.22
2022-10-05T09:15:20.456Z,3.92
2022-10-05T09:17:24.863Z,3.90
2022-10-05T09:19:26.295Z,3.88
2022-10-05T09:22:05.099Z,3.00
2022-10-05T09:24:12.326Z,3.70
2022-10-05T09:26:28.847Z,3.47
2022-10-05T09:28:32.500Z,2.40
2022-10-05T09:30:43.328Z,2.33
2022-10-05T09:32:45.001Z,2.58
2022-10-05T09:34:55.706Z,3.95
2022-10-05T09:37:03.586Z,3.58
2022-10-05T09:39:08.099Z,2.25
2022-10-05T09:41:28.436Z,3.30
2022-10-05T09:43:48.697Z,2.65
2022-10-05T09:46:09.528Z,3.88
2022-10-05T09:48:34.592Z,2.70
2022-10-05T09:50:42.406Z,2.70
2022-10-05T09:52:46.779Z,3.53
2022-10-05T09:55:04.132Z,3.25
2022-10-05T09:57:14.433Z,3.17
2022-10-05T09:59:39.438Z,2.90
2022-10-05T10:01:57.182Z,2.78
2022-10-05T10:04:10.979Z,3.65
2022-10-05T10:06:26.476Z,3.27
2022-10-05T10:08:31.032Z,2.47
2022-10-05T10:10:36.935Z,3.35
2022-10-05T10:12:54.973Z,3.13
2022-10-05T10:15:12.679Z,2.80
2022-10-05T10:17:29.506Z,2.53
2022-10-05T10:19:49.925Z,3.38
2022-10-05T10:22:16.309Z,2.78
2022-10-05T10:24:36.365Z,2.63
2022-10-05T10:26:57.615Z,2.72
2022-10-05T10:28:59.101Z,2.35
2022-10-05T10:31:06.585Z,2.85
2022-10-05T10:33:22.732Z,3.20
2022-10-05T10:35:37.684Z,3.13
2022-10-05T10:37:39.559Z,3.05
2022-10-05T10:39:45.234Z,2.80
2022-10-05T10:41:49.500Z,2.88
2022-10-05T10:44:11.050Z,2.92
2022-10-05T10:46:26.617Z,2.80
2022-10-05T10:48:31.660Z,2.90
2022-10-05T10:50:33.337Z,4.05
2022-10-05T10:52:34.815Z,2.95
2022-10-05T10:54:36.296Z,2.83
2022-10-05T10:56:40.864Z,2.95
2022-10-05T10:58:54.632Z,2.10
2022-10-05T11:01:08.296Z,3.05
2022-10-05T11:03:28.492Z,2.10
2022-10-05T11:05:33.035Z,2.53
2022-10-05T11:07:43.930Z,2.40
2022-10-05T11:09:48.301Z,4.47
2022-10-05T11:11:53.328Z,1.85
2022-10-05T11:14:02.685Z,2.40
2022-10-05T11:16:17.222Z,2.40
2022-10-05T11:18:39.330Z,2.50
2022-10-05T11:20:41.034Z,2.42
2022-10-05T11:22:51.560Z,2.55
2022-10-05T11:25:06.354Z,2.63
2022-10-05T11:27:14.007Z,3.85
2022-10-05T11:29:27.587Z,3.75
2022-10-05T11:31:47.569Z,3.20
2022-10-05T11:33:52.223Z,3.53
2022-10-05T11:36:02.847Z,3.78
2022-10-05T11:38:22.886Z,3.20
2022-10-05T11:40:36.440Z,4.85
2022-10-05T11:42:39.822Z,3.55
2022-10-05T11:44:59.977Z,4.90
2022-10-05T11:47:20.151Z,5.32
2022-10-05T11:49:40.527Z,6.10
2022-10-05T11:51:46.980Z,5.35
2022-10-05T11:54:03.107Z,5.68
2022-10-05T11:56:17.013Z,5.88
2022-10-05T11:58:41.419Z,6.10
2022-10-05T12:00:44.952Z,5.07
2022-10-05T12:02:55.753Z,6.95
2022-10-05T12:05:15.919Z,6.70
2022-10-05T12:07:20.298Z,4.85
2022-10-05T12:09:21.718Z,4.00
2022-10-05T12:11:42.722Z,4.38
2022-10-05T12:13:51.203Z,5.05
2022-10-05T12:15:55.745Z,4.60
2022-10-05T12:18:02.160Z,5.80
2022-10-05T12:20:11.569Z,5.88
2022-10-05T12:22:18.023Z,4.80
2022-10-05T12:24:23.328Z,4.85
2022-10-05T12:26:33.916Z,4.28
2022-10-05T12:28:38.599Z,5.20
2022-10-05T12:30:49.074Z,4.97
2022-10-05T12:33:09.246Z,5.60
2022-10-05T12:35:43.563Z,4.30
2022-10-05T12:37:54.975Z,4.63
2022-10-05T12:40:12.914Z,4.82
2022-10-05T12:42:26.515Z,4.53
2022-10-05T12:44:31.110Z,2.07
2022-10-05T12:46:43.992Z,2.78
2022-10-05T12:48:45.984Z,2.15
2022-10-05T12:50:55.729Z,2.03
2022-10-05T12:53:08.392Z,0.85
2022-10-05T12:55:40.362Z,0.50
2022-10-05T12:57:53.056Z,0.38
2022-10-05T13:00:01.387Z,0.30
2022-10-05T13:02:25.381Z,0.15
2022-10-05T13:04:49.636Z,0.15
2022-10-05T13:07:15.833Z,0.20
2022-10-05T13:09:36.980Z,0.10
2022-10-05T13:11:41.026Z,0.10
2022-10-05T13:13:58.584Z,0.20
2022-10-05T13:16:16.347Z,0.10
2022-10-05T13:18:25.882Z,0.20
2022-10-05T13:20:41.507Z,0.10
2022-10-05T13:22:46.624Z,0.30
2022-10-05T13:25:03.103Z,0.00
2022-10-05T13:27:19.287Z,0.10
2022-10-05T13:29:39.789Z,0.10
2022-10-05T13:31:44.738Z,0.10
2022-10-05T13:33:55.220Z,0.30
2022-10-05T13:36:11.522Z,0.30
2022-10-05T13:38:13.526Z,0.30
2022-10-05T13:40:33.758Z,0.15
2022-10-05T13:42:39.980Z,0.20
2022-10-05T13:44:41.663Z,0.20
2022-10-05T13:47:06.107Z,0.13
2022-10-05T13:49:21.865Z,0.10
2022-10-05T13:51:36.372Z,0.10
2022-10-05T13:53:56.373Z,0.20
2022-10-05T13:55:58.226Z,0.10
2022-10-05T13:58:05.682Z,0.20
2022-10-05T14:00:26.259Z,0.30
2022-10-05T14:02:35.616Z,0.30
2022-10-05T14:04:43.007Z,1.48
2022-10-05T14:06:45.205Z,0.10
2022-10-05T14:08:48.543Z,0.22
2022-10-05T14:10:50.162Z,0.10
2022-10-05T14:12:53.647Z,0.10
2022-10-05T14:14:57.079Z,0.30
2022-10-05T14:17:05.671Z,0.10
2022-10-05T14:19:07.367Z,0.20
2022-10-05T14:21:08.763Z,0.10
2022-10-05T14:23:17.287Z,0.20
2022-10-05T14:25:23.728Z,0.10
2022-10-05T14:27:33.314Z,0.20
2022-10-05T14:29:36.484Z,0.35
2022-10-05T14:31:46.872Z,0.28
2022-10-05T14:33:48.603Z,0.03
2022-10-05T14:35:51.158Z,0.10
2022-10-05T14:38:07.937Z,0.40
2022-10-05T14:40:32.653Z,0.20
2022-10-05T14:42:46.939Z,0.00
2022-10-05T14:45:11.450Z,0.20
2022-10-05T14:47:34.228Z,0.10
2022-10-05T14:49:47.453Z,0.30
2022-10-05T14:51:50.107Z,0.20
2022-10-05T14:53:59.158Z,0.20
2022-10-05T14:56:23.795Z,0.25
2022-10-05T14:58:28.508Z,0.20
2022-10-05T15:00:33.907Z,0.20
2022-10-05T15:02:53.648Z,0.20
2022-10-05T15:05:01.541Z,0.17
2022-10-05T15:07:22.082Z,0.20
2022-10-05T15:09:36.832Z,0.20
2022-10-05T15:11:38.890Z,0.30
2022-10-05T15:13:45.199Z,0.10
2022-10-05T15:15:51.984Z,0.30
2022-10-05T15:18:08.656Z,0.30
2022-10-05T15:20:30.816Z,0.40
2022-10-05T15:22:42.732Z,0.40
2022-10-05T15:25:04.533Z,0.32
2022-10-05T15:27:06.048Z,0.20
2022-10-05T15:29:10.587Z,0.20
2022-10-05T15:31:16.341Z,0.40
2022-10-05T15:33:22.591Z,0.35
2022-10-05T15:35:45.806Z,0.47
2022-10-05T15:37:52.607Z,0.60
2022-10-05T15:39:59.714Z,0.35
2022-10-05T15:42:03.514Z,0.35
2022-10-05T15:44:26.060Z,0.28
2022-10-05T15:46:28.817Z,0.70
2022-10-05T15:48:40.163Z,1.75
2022-10-05T15:50:46.401Z,0.80
2022-10-05T15:52:50.993Z,0.30
2022-10-05T15:55:11.460Z,0.47
2022-10-05T15:57:30.352Z,0.30
2022-10-05T15:59:42.167Z,0.38
2022-10-05T16:02:10.186Z,0.40
2022-10-05T16:04:17.168Z,0.40
2022-10-05T16:06:57.916Z,0.30
2022-10-05T16:09:04.423Z,0.60
2022-10-05T16:11:14.638Z,0.38
2022-10-05T16:13:37.139Z,0.70
2022-10-05T16:15:51.529Z,0.60
2022-10-05T16:18:13.594Z,0.70
2022-10-05T16:20:25.112Z,0.63
2022-10-05T16:22:32.288Z,0.77
2022-10-05T16:24:51.715Z,0.65
2022-10-05T16:27:00.099Z,1.02
2022-10-05T16:29:12.451Z,1.08
2022-10-05T16:31:16.386Z,0.40
2022-10-05T16:35:34.247Z,0.40
2022-10-05T16:37:53.652Z,0.52
2022-10-05T16:39:58.502Z,0.75
2022-10-05T16:42:20.186Z,1.05
2022-10-05T16:44:34.379Z,0.73
2022-10-05T16:46:39.694Z,0.82
2022-10-05T16:48:41.177Z,0.77
2022-10-05T16:50:49.683Z,1.83
2022-10-05T16:53:09.475Z,2.03
2022-10-05T16:55:14.694Z,1.40
2022-10-05T16:57:36.703Z,1.33
2022-10-05T16:59:56.938Z,0.93
2022-10-05T17:02:04.603Z,1.50
2022-10-05T17:04:15.818Z,1.13
2022-10-05T17:06:35.332Z,1.38
2022-10-05T17:08:49.731Z,0.98
2022-10-05T17:13:02.543Z,1.48
2022-10-05T17:15:12.655Z,1.77
2022-10-05T17:17:20.726Z,1.33
2022-10-05T17:19:42.550Z,1.48
2022-10-05T17:21:44.505Z,1.48
2022-10-05T17:23:59.514Z,1.50
2022-10-05T17:26:03.832Z,1.35
2022-10-05T17:28:23.828Z,1.67
2022-10-05T17:30:30.079Z,1.40
2022-10-05T17:32:34.301Z,1.33
2022-10-05T17:34:37.564Z,1.83
2022-10-05T17:36:54.183Z,1.70
2022-10-05T17:39:15.979Z,1.83
2022-10-05T17:41:22.217Z,1.38
2022-10-05T17:43:25.442Z,1.52
2022-10-05T17:45:47.943Z,1.70
2022-10-05T17:48:00.507Z,1.63
2022-10-05T17:50:20.682Z,1.65
2022-10-05T17:52:42.492Z,1.67
2022-10-05T17:55:04.728Z,1.70
2022-10-05T17:57:06.507Z,1.67
2022-10-05T17:59:09.157Z,1.92
2022-10-05T18:01:17.161Z,1.25
2022-10-05T18:03:35.619Z,1.95
2022-10-05T18:05:38.337Z,1.65
2022-10-05T18:07:40.762Z,1.75
2022-10-05T18:10:17.427Z,1.50
2022-10-05T18:12:24.180Z,3.00
2022-10-05T18:14:26.508Z,3.15
2022-10-05T18:16:47.314Z,1.80
2022-10-05T18:18:57.276Z,1.63
2022-10-05T18:21:15.106Z,2.72
2022-10-05T18:23:25.622Z,3.45
2022-10-05T18:25:48.278Z,1.95
2022-10-05T18:27:54.903Z,2.47
2022-10-05T18:30:05.906Z,1.60
2022-10-05T18:32:12.402Z,2.15
2022-10-05T18:34:13.875Z,2.67
2022-10-05T18:36:21.079Z,2.80
2022-10-05T18:38:41.743Z,1.70
2022-10-05T18:40:54.540Z,2.45
2022-10-05T18:43:00.818Z,2.50
2022-10-05T18:45:05.177Z,1.60
2022-10-05T18:47:12.313Z,2.53
2022-10-05T18:49:19.647Z,2.17
2022-10-05T18:51:36.572Z,1.83
2022-10-05T18:53:50.786Z,3.80
2022-10-05T18:56:03.643Z,2.47
2022-10-05T18:58:22.504Z,2.40
2022-10-05T19:00:25.941Z,1.80
2022-10-05T19:02:35.612Z,2.33
2022-10-05T19:04:37.336Z,2.10
2022-10-05T19:06:46.329Z,3.22
2022-10-05T19:09:17.021Z,2.28
2022-10-05T19:11:21.071Z,2.72
2022-10-05T19:13:41.959Z,3.03
2022-10-05T19:15:44.370Z,2.90
2022-10-05T19:17:58.673Z,2.33
2022-10-05T19:20:10.323Z,2.28
2022-10-05T19:22:31.052Z,3.13
2022-10-05T19:24:32.935Z,2.13
2022-10-05T19:26:35.755Z,2.35
2022-10-05T19:28:41.243Z,2.47
2022-10-05T19:31:01.279Z,3.17
2022-10-05T19:33:06.287Z,2.15
2022-10-05T19:35:11.334Z,2.20
2022-10-05T19:37:20.960Z,2.17
2022-10-05T19:39:41.002Z,4.00
2022-10-05T19:41:42.463Z,2.70
2022-10-05T19:43:56.627Z,2.65
2022-10-05T19:45:58.489Z,3.20
2022-10-05T19:48:08.972Z,3.33
2022-10-05T19:50:25.074Z,2.78
2022-10-05T19:52:46.258Z,2.20
2022-10-05T19:55:11.082Z,3.28
2022-10-05T19:57:17.797Z,1.90
2022-10-05T19:59:20.744Z,3.00
2022-10-05T20:01:24.899Z,2.60
2022-10-05T20:03:31.006Z,3.05
2022-10-05T20:05:34.117Z,3.08
2022-10-05T20:07:36.990Z,4.00
2022-10-05T20:09:50.615Z,3.65
2022-10-05T20:11:53.042Z,4.20
2022-10-05T20:13:55.252Z,2.38
2022-10-05T20:19:04.636Z,2.53
2022-10-05T20:21:07.632Z,2.65
2022-10-05T20:23:24.445Z,4.00
2022-10-05T20:25:29.558Z,2.50
2022-10-05T20:27:37.513Z,2.92
2022-10-05T20:29:44.551Z,2.50
2022-10-05T20:31:48.218Z,4.07
2022-10-05T20:33:51.796Z,3.30
2022-10-05T20:35:55.124Z,3.38
2022-10-05T20:38:02.083Z,3.63
2022-10-05T20:40:05.525Z,3.25
2022-10-05T20:42:09.397Z,2.90
2022-10-05T20:44:13.352Z,2.00
2022-10-05T20:48:19.569Z,2.95
2022-10-05T20:50:22.316Z,2.35
2022-10-05T20:52:24.547Z,2.55
2022-10-05T20:54:26.617Z,2.60
2022-10-05T20:56:29.494Z,3.90
2022-10-05T20:58:31.647Z,2.10
2022-10-05T21:00:53.173Z,3.20
2022-10-05T21:02:57.398Z,3.35
2022-10-05T21:04:58.936Z,2.63
2022-10-05T21:07:02.709Z,2.95
2022-10-05T21:09:04.643Z,2.30
2022-10-05T21:11:12.162Z,3.08
2022-10-05T21:13:14.621Z,2.42
2022-10-05T21:15:16.031Z,2.50
2022-10-05T21:17:17.602Z,3.17
2022-10-05T21:19:19.237Z,3.58
2022-10-05T21:21:20.839Z,3.83
2022-10-05T21:23:22.315Z,3.50
2022-10-05T21:25:23.757Z,2.08
2022-10-05T21:27:25.574Z,3.38
2022-10-05T21:29:27.132Z,3.33
2022-10-05T21:31:29.106Z,4.78
2022-10-05T21:33:30.840Z,2.10
2022-10-05T21:35:32.843Z,2.67
2022-10-05T21:37:34.282Z,2.22
2022-10-05T21:39:36.603Z,2.72
2022-10-05T21:41:38.124Z,2.28
2022-10-05T21:43:39.992Z,2.15
2022-10-05T21:45:42.390Z,2.22
2022-10-05T21:47:43.886Z,2.30
2022-10-05T21:49:45.408Z,2.80
2022-10-05T21:51:47.374Z,3.20
2022-10-05T21:53:53.635Z,2.35
2022-10-05T21:55:56.939Z,2.50
2022-10-05T21:58:02.183Z,3.08
2022-10-05T22:00:04.499Z,3.13
2022-10-05T22:02:06.105Z,3.60
2022-10-05T22:04:07.622Z,3.17
2022-10-05T22:06:09.073Z,2.58
2022-10-05T22:08:18.767Z,2.33
2022-10-05T22:10:20.260Z,3.95
2022-10-05T22:12:24.336Z,2.35
2022-10-05T22:14:33.009Z,3.80
2022-10-05T22:16:41.909Z,2.53
2022-10-05T22:18:51.103Z,3.70
2022-10-05T22:20:58.786Z,1.77
2022-10-05T22:23:03.438Z,2.63
2022-10-05T22:25:11.886Z,1.60
2022-10-05T22:27:21.615Z,2.10
2022-10-05T22:29:30.970Z,2.35
2022-10-05T22:31:37.570Z,2.60
2022-10-05T22:33:42.246Z,2.42
2022-10-05T22:37:53.212Z,3.08
2022-10-05T22:39:55.367Z,2.25
2022-10-05T22:41:57.231Z,2.17
2022-10-05T22:43:58.951Z,2.20
2022-10-05T22:46:01.085Z,1.92
2022-10-05T22:48:02.924Z,1.77
2022-10-05T22:50:04.570Z,2.65
2022-10-05T22:52:06.263Z,3.22
2022-10-05T22:54:07.908Z,2.58
2022-10-05T22:56:10.894Z,2.20
2022-10-05T22:58:12.385Z,2.50
2022-10-05T23:00:14.032Z,3.70
2022-10-05T23:02:17.746Z,2.85
2022-10-05T23:04:19.456Z,2.58
2022-10-05T23:06:21.105Z,2.13
2022-10-05T23:08:22.564Z,1.88
2022-10-05T23:10:24.350Z,1.85
2022-10-05T23:12:25.828Z,3.88
2022-10-05T23:14:29.410Z,2.75
2022-10-05T23:16:30.959Z,2.47
2022-10-05T23:18:33.654Z,1.88
2022-10-05T23:20:35.094Z,2.67
2022-10-05T23:22:37.270Z,2.70
2022-10-05T23:24:38.715Z,2.47
2022-10-05T23:26:40.180Z,2.75
2022-10-05T23:28:49.014Z,2.17
2022-10-05T23:30:50.632Z,2.45
2022-10-05T23:32:52.152Z,2.65
2022-10-05T23:34:53.607Z,1.80
2022-10-05T23:36:55.064Z,2.28
2022-10-05T23:38:56.496Z,2.33
2022-10-05T23:41:00.803Z,1.85
2022-10-05T23:43:02.594Z,1.90
2022-10-05T23:45:04.470Z,2.58
2022-10-05T23:47:05.939Z,4.90
2022-10-05T23:49:07.398Z,2.33
2022-10-05T23:51:10.254Z,2.55
2022-10-05T23:53:11.736Z,1.88
2022-10-05T23:55:13.214Z,2.65
2022-10-05T23:57:18.211Z,2.42
2022-10-05T23:59:19.607Z,2.85
